sensor_id;sensor_type;location;lat;lon;timestamp;temperature;humidity
35463;DHT22;21578;47.892;9.970;2023-11-19T00:03:49;5.30;96.60
35463;DHT22;21578;47.892;9.970;2023-11-19T00:08:46;5.30;96.60
35463;DHT22;21578;47.892;9.970;2023-11-19T00:13:38;5.30;96.60
35463;DHT22;21578;47.892;9.970;2023-11-19T00:18:28;5.40;96.60
35463;DHT22;21578;47.892;9.970;2023-11-19T00:23:18;5.40;96.60
35463;DHT22;21578;47.892;9.970;2023-11-19T00:28:09;5.50;96.60
35463;DHT22;21578;47.892;9.970;2023-11-19T00:32:57;5.50;96.60
35463;DHT22;21578;47.892;9.970;2023-11-19T00:37:44;5.50;96.60
35463;DHT22;21578;47.892;9.970;2023-11-19T00:42:33;5.60;96.60
35463;DHT22;21578;47.892;9.970;2023-11-19T00:47:21;5.50;96.60
35463;DHT22;21578;47.892;9.970;2023-11-19T00:52:08;5.50;96.60
35463;DHT22;21578;47.892;9.970;2023-11-19T01:08:14;5.60;96.60
35463;DHT22;21578;47.892;9.970;2023-11-19T01:13:16;5.60;96.60
35463;DHT22;21578;47.892;9.970;2023-11-19T01:29:52;5.60;96.60
35463;DHT22;21578;47.892;9.970;2023-11-19T01:34:41;5.70;96.60
35463;DHT22;21578;47.892;9.970;2023-11-19T01:39:33;5.70;96.60
35463;DHT22;21578;47.892;9.970;2023-11-19T01:44:23;5.70;96.60
35463;DHT22;21578;47.892;9.970;2023-11-19T01:49:34;5.80;96.60
35463;DHT22;21578;47.892;9.970;2023-11-19T01:54:23;5.80;96.60
35463;DHT22;21578;47.892;9.970;2023-11-19T01:59:27;5.80;96.60
35463;DHT22;21578;47.892;9.970;2023-11-19T02:04:34;5.90;96.60
35463;DHT22;21578;47.892;9.970;2023-11-19T02:09:33;5.90;96.60
35463;DHT22;21578;47.892;9.970;2023-11-19T02:14:26;5.90;96.60
35463;DHT22;21578;47.892;9.970;2023-11-19T02:19:15;6.00;96.60
35463;DHT22;21578;47.892;9.970;2023-11-19T02:24:12;6.10;96.60
35463;DHT22;21578;47.892;9.970;2023-11-19T02:29:22;6.20;96.60
35463;DHT22;21578;47.892;9.970;2023-11-19T02:34:56;6.20;96.60
35463;DHT22;21578;47.892;9.970;2023-11-19T02:56:30;6.30;96.60
35463;DHT22;21578;47.892;9.970;2023-11-19T03:01:22;6.30;96.60
35463;DHT22;21578;47.892;9.970;2023-11-19T03:06:16;6.20;96.60
35463;DHT22;21578;47.892;9.970;2023-11-19T03:11:06;6.20;96.60
35463;DHT22;21578;47.892;9.970;2023-11-19T03:15:56;6.30;96.60
35463;DHT22;21578;47.892;9.970;2023-11-19T03:20:58;6.30;96.60
35463;DHT22;21578;47.892;9.970;2023-11-19T03:25:48;6.30;96.60
35463;DHT22;21578;47.892;9.970;2023-11-19T03:30:36;6.40;96.60
35463;DHT22;21578;47.892;9.970;2023-11-19T03:35:25;6.60;96.60
35463;DHT22;21578;47.892;9.970;2023-11-19T03:40:21;6.70;96.60
35463;DHT22;21578;47.892;9.970;2023-11-19T03:45:13;6.70;96.60
35463;DHT22;21578;47.892;9.970;2023-11-19T03:50:05;6.80;96.60
35463;DHT22;21578;47.892;9.970;2023-11-19T03:54:53;6.80;96.60
35463;DHT22;21578;47.892;9.970;2023-11-19T03:59:42;6.90;96.60
35463;DHT22;21578;47.892;9.970;2023-11-19T04:04:31;7.00;96.60
35463;DHT22;21578;47.892;9.970;2023-11-19T04:09:19;7.00;96.60
35463;DHT22;21578;47.892;9.970;2023-11-19T04:14:08;7.10;96.60
35463;DHT22;21578;47.892;9.970;2023-11-19T04:18:57;7.20;96.60
35463;DHT22;21578;47.892;9.970;2023-11-19T04:23:49;7.30;96.60
35463;DHT22;21578;47.892;9.970;2023-11-19T04:28:41;7.30;96.60
35463;DHT22;21578;47.892;9.970;2023-11-19T04:33:39;7.40;96.60
35463;DHT22;21578;47.892;9.970;2023-11-19T04:38:30;7.60;96.60
35463;DHT22;21578;47.892;9.970;2023-11-19T04:43:21;7.70;96.60
35463;DHT22;21578;47.892;9.970;2023-11-19T04:48:09;7.70;96.60
35463;DHT22;21578;47.892;9.970;2023-11-19T04:53:12;7.70;96.60
35463;DHT22;21578;47.892;9.970;2023-11-19T04:58:02;7.80;96.60
35463;DHT22;21578;47.892;9.970;2023-11-19T05:02:55;7.80;96.60
35463;DHT22;21578;47.892;9.970;2023-11-19T05:07:42;7.90;96.60
35463;DHT22;21578;47.892;9.970;2023-11-19T05:12:31;8.00;96.60
35463;DHT22;21578;47.892;9.970;2023-11-19T05:17:20;7.90;96.60
35463;DHT22;21578;47.892;9.970;2023-11-19T05:22:10;8.00;96.60
35463;DHT22;21578;47.892;9.970;2023-11-19T05:26:58;8.10;96.60
35463;DHT22;21578;47.892;9.970;2023-11-19T05:31:46;8.20;96.60
35463;DHT22;21578;47.892;9.970;2023-11-19T05:36:35;8.20;96.60
35463;DHT22;21578;47.892;9.970;2023-11-19T05:41:26;8.20;96.60
35463;DHT22;21578;47.892;9.970;2023-11-19T05:46:14;8.20;96.60
35463;DHT22;21578;47.892;9.970;2023-11-19T05:57:03;8.30;96.60
35463;DHT22;21578;47.892;9.970;2023-11-19T06:02:11;8.20;96.60
35463;DHT22;21578;47.892;9.970;2023-11-19T06:07:17;8.30;96.60
35463;DHT22;21578;47.892;9.970;2023-11-19T06:12:33;8.30;96.60
35463;DHT22;21578;47.892;9.970;2023-11-19T06:17:29;8.40;96.60
35463;DHT22;21578;47.892;9.970;2023-11-19T06:22:17;8.40;96.60
35463;DHT22;21578;47.892;9.970;2023-11-19T06:27:06;8.40;96.60
35463;DHT22;21578;47.892;9.970;2023-11-19T06:38:22;8.50;96.60
35463;DHT22;21578;47.892;9.970;2023-11-19T07:51:03;9.10;96.60
35463;DHT22;21578;47.892;9.970;2023-11-19T07:55:49;9.10;96.60
35463;DHT22;21578;47.892;9.970;2023-11-19T08:00:36;9.20;96.60
35463;DHT22;21578;47.892;9.970;2023-11-19T08:05:23;9.30;96.60
35463;DHT22;21578;47.892;9.970;2023-11-19T08:10:12;9.30;96.60
35463;DHT22;21578;47.892;9.970;2023-11-19T08:15:00;9.30;96.60
35463;DHT22;21578;47.892;9.970;2023-11-19T08:19:50;9.30;96.60
35463;DHT22;21578;47.892;9.970;2023-11-19T08:24:37;9.40;96.60
35463;DHT22;21578;47.892;9.970;2023-11-19T08:29:26;9.50;96.60
35463;DHT22;21578;47.892;9.970;2023-11-19T08:34:13;9.50;96.60
35463;DHT22;21578;47.892;9.970;2023-11-19T08:39:01;9.50;96.60
35463;DHT22;21578;47.892;9.970;2023-11-19T08:43:48;9.60;96.60
35463;DHT22;21578;47.892;9.970;2023-11-19T08:48:37;9.70;96.60
35463;DHT22;21578;47.892;9.970;2023-11-19T08:53:24;9.60;96.60
35463;DHT22;21578;47.892;9.970;2023-11-19T08:58:11;9.70;96.60
35463;DHT22;21578;47.892;9.970;2023-11-19T09:02:58;9.80;96.60
35463;DHT22;21578;47.892;9.970;2023-11-19T09:07:46;9.80;96.60
35463;DHT22;21578;47.892;9.970;2023-11-19T09:12:35;9.80;96.60
35463;DHT22;21578;47.892;9.970;2023-11-19T09:17:22;9.90;96.60
35463;DHT22;21578;47.892;9.970;2023-11-19T09:22:09;9.90;96.60
35463;DHT22;21578;47.892;9.970;2023-11-19T09:26:57;9.90;96.60
35463;DHT22;21578;47.892;9.970;2023-11-19T09:31:45;9.90;96.60
35463;DHT22;21578;47.892;9.970;2023-11-19T09:36:32;9.90;96.60
35463;DHT22;21578;47.892;9.970;2023-11-19T09:41:19;9.90;96.60
35463;DHT22;21578;47.892;9.970;2023-11-19T09:46:10;10.00;96.60
35463;DHT22;21578;47.892;9.970;2023-11-19T09:50:57;10.00;96.60
35463;DHT22;21578;47.892;9.970;2023-11-19T09:55:45;10.20;96.60
35463;DHT22;21578;47.892;9.970;2023-11-19T10:00:32;10.20;96.60
35463;DHT22;21578;47.892;9.970;2023-11-19T10:05:20;10.20;96.60
35463;DHT22;21578;47.892;9.970;2023-11-19T10:10:09;10.30;96.60
35463;DHT22;21578;47.892;9.970;2023-11-19T10:14:59;10.40;96.60
35463;DHT22;21578;47.892;9.970;2023-11-19T10:19:46;10.50;96.60
35463;DHT22;21578;47.892;9.970;2023-11-19T10:24:35;10.50;96.60
35463;DHT22;21578;47.892;9.970;2023-11-19T10:29:24;10.60;96.60
35463;DHT22;21578;47.892;9.970;2023-11-19T10:34:25;10.60;96.60
35463;DHT22;21578;47.892;9.970;2023-11-19T10:39:12;10.60;96.60
35463;DHT22;21578;47.892;9.970;2023-11-19T10:44:01;10.60;96.60
35463;DHT22;21578;47.892;9.970;2023-11-19T11:57:36;10.90;96.60
35463;DHT22;21578;47.892;9.970;2023-11-19T12:02:23;10.90;96.60
35463;DHT22;21578;47.892;9.970;2023-11-19T12:07:13;10.90;96.60
35463;DHT22;21578;47.892;9.970;2023-11-19T12:12:23;11.00;96.60
35463;DHT22;21578;47.892;9.970;2023-11-19T12:17:36;11.00;96.60
35463;DHT22;21578;47.892;9.970;2023-11-19T12:22:24;11.00;96.60
35463;DHT22;21578;47.892;9.970;2023-11-19T12:27:12;11.00;96.60
35463;DHT22;21578;47.892;9.970;2023-11-19T12:32:02;11.00;96.60
35463;DHT22;21578;47.892;9.970;2023-11-19T12:36:49;11.00;96.60
35463;DHT22;21578;47.892;9.970;2023-11-19T12:41:51;11.10;96.60
35463;DHT22;21578;47.892;9.970;2023-11-19T12:46:38;11.10;96.60
35463;DHT22;21578;47.892;9.970;2023-11-19T12:51:32;11.20;96.60
35463;DHT22;21578;47.892;9.970;2023-11-19T12:56:19;11.20;96.60
35463;DHT22;21578;47.892;9.970;2023-11-19T13:07:00;11.10;96.60
35463;DHT22;21578;47.892;9.970;2023-11-19T13:11:49;11.10;96.60
35463;DHT22;21578;47.892;9.970;2023-11-19T13:16:43;11.10;96.60
35463;DHT22;21578;47.892;9.970;2023-11-19T13:21:31;11.10;96.60
35463;DHT22;21578;47.892;9.970;2023-11-19T13:26:19;11.00;96.60
35463;DHT22;21578;47.892;9.970;2023-11-19T13:31:06;11.10;96.60
35463;DHT22;21578;47.892;9.970;2023-11-19T13:35:53;11.10;96.60
35463;DHT22;21578;47.892;9.970;2023-11-19T13:40:43;11.00;96.60
35463;DHT22;21578;47.892;9.970;2023-11-19T13:45:34;11.10;96.60
35463;DHT22;21578;47.892;9.970;2023-11-19T13:50:21;11.10;96.60
35463;DHT22;21578;47.892;9.970;2023-11-19T13:55:09;11.10;96.60
35463;DHT22;21578;47.892;9.970;2023-11-19T13:59:56;11.10;96.60
35463;DHT22;21578;47.892;9.970;2023-11-19T14:04:44;11.10;96.60
35463;DHT22;21578;47.892;9.970;2023-11-19T14:09:31;11.10;96.60
35463;DHT22;21578;47.892;9.970;2023-11-19T14:14:18;11.10;96.60
35463;DHT22;21578;47.892;9.970;2023-11-19T14:19:05;11.10;96.60
35463;DHT22;21578;47.892;9.970;2023-11-19T14:23:53;11.20;96.60
35463;DHT22;21578;47.892;9.970;2023-11-19T14:28:40;11.10;96.60
35463;DHT22;21578;47.892;9.970;2023-11-19T14:33:27;11.10;96.60
35463;DHT22;21578;47.892;9.970;2023-11-19T14:38:14;11.00;96.60
35463;DHT22;21578;47.892;9.970;2023-11-19T14:43:02;11.00;96.60
35463;DHT22;21578;47.892;9.970;2023-11-19T14:47:49;11.00;96.60
35463;DHT22;21578;47.892;9.970;2023-11-19T14:52:36;11.00;96.60
35463;DHT22;21578;47.892;9.970;2023-11-19T19:10:29;10.10;96.60
35463;DHT22;21578;47.892;9.970;2023-11-19T19:15:16;10.20;96.60
35463;DHT22;21578;47.892;9.970;2023-11-19T19:20:04;10.20;96.60
35463;DHT22;21578;47.892;9.970;2023-11-19T19:24:52;10.20;96.60
35463;DHT22;21578;47.892;9.970;2023-11-19T19:29:42;10.20;96.60
35463;DHT22;21578;47.892;9.970;2023-11-19T20:20:10;10.30;96.60
35463;DHT22;21578;47.892;9.970;2023-11-19T20:53:35;10.00;96.60
35463;DHT22;21578;47.892;9.970;2023-11-19T20:58:22;10.00;96.60
35463;DHT22;21578;47.892;9.970;2023-11-19T21:26:39;9.80;96.60
35463;DHT22;21578;47.892;9.970;2023-11-19T21:31:27;9.70;96.60
35463;DHT22;21578;47.892;9.970;2023-11-19T21:36:14;9.70;96.60
35463;DHT22;21578;47.892;9.970;2023-11-19T21:41:02;9.60;96.60
35463;DHT22;21578;47.892;9.970;2023-11-19T21:45:51;9.60;96.60
35463;DHT22;21578;47.892;9.970;2023-11-19T21:50:38;9.70;96.60
35463;DHT22;21578;47.892;9.970;2023-11-19T21:55:26;9.70;96.60
35463;DHT22;21578;47.892;9.970;2023-11-19T22:00:15;9.60;96.60
35463;DHT22;21578;47.892;9.970;2023-11-19T22:05:07;9.70;96.60
35463;DHT22;21578;47.892;9.970;2023-11-19T22:09:54;9.60;96.60
35463;DHT22;21578;47.892;9.970;2023-11-19T22:14:41;9.60;96.60
35463;DHT22;21578;47.892;9.970;2023-11-19T22:19:28;9.60;96.60
35463;DHT22;21578;47.892;9.970;2023-11-19T22:24:17;9.60;96.60
35463;DHT22;21578;47.892;9.970;2023-11-19T22:29:04;9.60;96.60
35463;DHT22;21578;47.892;9.970;2023-11-19T22:33:51;9.60;96.60
35463;DHT22;21578;47.892;9.970;2023-11-19T22:38:38;9.50;96.60
35463;DHT22;21578;47.892;9.970;2023-11-19T22:43:27;9.50;96.60
35463;DHT22;21578;47.892;9.970;2023-11-19T22:48:13;9.60;96.60
35463;DHT22;21578;47.892;9.970;2023-11-19T22:53:00;9.60;96.60
35463;DHT22;21578;47.892;9.970;2023-11-19T22:57:47;9.60;96.60
35463;DHT22;21578;47.892;9.970;2023-11-19T23:02:36;9.60;96.60
35463;DHT22;21578;47.892;9.970;2023-11-19T23:07:23;9.60;96.60
35463;DHT22;21578;47.892;9.970;2023-11-19T23:12:10;9.70;96.60
35463;DHT22;21578;47.892;9.970;2023-11-19T23:16:57;9.60;96.60
35463;DHT22;21578;47.892;9.970;2023-11-19T23:21:45;9.50;96.60
35463;DHT22;21578;47.892;9.970;2023-11-19T23:26:33;9.50;96.60
35463;DHT22;21578;47.892;9.970;2023-11-19T23:31:20;9.40;96.60
35463;DHT22;21578;47.892;9.970;2023-11-19T23:36:08;9.50;96.60
35463;DHT22;21578;47.892;9.970;2023-11-19T23:40:56;9.50;96.60
35463;DHT22;21578;47.892;9.970;2023-11-19T23:45:43;9.60;96.60
35463;DHT22;21578;47.892;9.970;2023-11-19T23:50:30;9.60;96.60
35463;DHT22;21578;47.892;9.970;2023-11-19T23:55:17;9.70;96.60
